Time;durP1;ratioP1;P1;durP2;ratioP2;P2;SDS_P1;SDS_P2;PMS_P1;PMS_P2;Temp;Humidity;BMP_temperature;BMP_pressure;BME280_temperature;BME280_humidity;BME280_pressure;Samples;Min_cycle;Max_cycle;Signal;HPM_P1;HPM_P2
2022/07/14 00:01:41;;;;;;;2.80;2.63;;;;;;;21.18;60.55;96277.63;5075063;28;20017;-71
2022/07/14 00:04:07;;;;;;;3.53;2.40;;;;;;;21.09;61.56;96279.59;5076898;28;20028;-72
2022/07/14 00:06:33;;;;;;;2.58;2.40;;;;;;;21.02;62.12;96284.09;5087519;28;20051;-71
2022/07/14 00:08:58;;;;;;;2.55;2.40;;;;;;;20.97;61.99;96275.81;5080731;28;20035;-71
2022/07/14 00:11:24;;;;;;;2.88;2.50;;;;;;;20.99;60.69;96287.97;5083353;28;20028;-72
2022/07/14 00:13:50;;;;;;;2.45;2.35;;;;;;;20.94;60.23;96282.38;5081321;28;20897;-71
2022/07/14 00:16:15;;;;;;;2.60;2.50;;;;;;;20.86;62.65;96280.66;5084361;28;20020;-71
2022/07/14 00:18:43;;;;;;;4.88;2.40;;;;;;;20.75;63.06;96281.16;5079488;28;20054;-72
2022/07/14 00:21:13;;;;;;;2.63;2.42;;;;;;;20.69;62.16;96287.28;5081454;28;20020;-71
2022/07/14 00:23:39;;;;;;;4.57;2.40;;;;;;;20.72;61.46;96284.22;5079005;28;20023;-71
2022/07/14 00:26:05;;;;;;;3.10;2.30;;;;;;;20.84;60.06;96293.41;5080451;28;20108;-71
2022/07/14 00:28:32;;;;;;;3.25;2.70;;;;;;;20.81;61.42;96293.78;5083066;28;20134;-72
2022/07/14 00:31:03;;;;;;;3.28;2.97;;;;;;;20.78;61.40;96295.97;5078911;28;20025;-71
2022/07/14 00:33:29;;;;;;;3.72;2.88;;;;;;;20.73;61.47;96292.03;5074714;28;20419;-72
2022/07/14 00:35:54;;;;;;;2.92;2.75;;;;;;;20.69;61.78;96293.44;5085852;28;20161;-71
2022/07/14 00:38:20;;;;;;;2.85;2.70;;;;;;;20.62;61.42;96297.91;5076810;28;20104;-71
2022/07/14 00:40:45;;;;;;;2.40;2.28;;;;;;;20.57;62.50;96293.13;5086614;28;20070;-71
2022/07/14 00:43:11;;;;;;;4.03;2.70;;;;;;;20.53;62.78;96302.56;5080050;28;20426;-71
2022/07/14 00:45:36;;;;;;;2.60;2.40;;;;;;;20.47;62.47;96300.66;5077654;28;20038;-71
2022/07/14 00:48:01;;;;;;;3.28;2.80;;;;;;;20.48;64.53;96304.97;5081931;28;20104;-71
2022/07/14 00:50:27;;;;;;;3.10;2.58;;;;;;;20.36;64.81;96303.81;5078400;28;20384;-72
2022/07/14 00:52:53;;;;;;;2.55;2.45;;;;;;;20.39;63.59;96303.44;5084687;28;20031;-71
2022/07/14 00:55:18;;;;;;;2.78;2.58;;;;;;;20.35;63.12;96294.97;5073569;28;20035;-71
2022/07/14 00:57:44;;;;;;;2.58;2.38;;;;;;;20.29;63.41;96290.34;5077599;28;20111;-71
2022/07/14 01:00:12;;;;;;;3.35;2.90;;;;;;;20.23;63.86;96294.63;5073884;28;20020;-71
2022/07/14 01:02:37;;;;;;;2.40;2.30;;;;;;;20.21;63.94;96287.81;5086744;28;20048;-71
2022/07/14 01:05:04;;;;;;;3.35;2.88;;;;;;;20.14;63.88;96288.56;5089443;28;20063;-71
2022/07/14 01:07:30;;;;;;;2.95;2.75;;;;;;;20.03;64.12;96283.69;5075956;28;20033;-71
2022/07/14 01:09:55;;;;;;;2.30;2.20;;;;;;;20.01;64.55;96275.88;5077408;28;20560;-71
2022/07/14 01:12:21;;;;;;;2.30;2.20;;;;;;;19.97;66.02;96274.56;5077277;28;20090;-71
2022/07/14 01:14:46;;;;;;;2.63;2.50;;;;;;;19.94;64.95;96271.47;5078561;28;20119;-71
2022/07/14 01:17:12;;;;;;;2.70;2.50;;;;;;;19.94;65.41;96268.78;5085394;28;20023;-70
2022/07/14 01:19:38;;;;;;;2.60;2.47;;;;;;;19.94;65.83;96261.59;5081477;28;20077;-71
2022/07/14 01:22:05;;;;;;;3.30;3.00;;;;;;;19.88;65.64;96262.31;5078670;28;20020;-71
2022/07/14 01:24:30;;;;;;;4.00;3.03;;;;;;;19.86;65.51;96253.66;5082307;28;20368;-71
2022/07/14 01:26:56;;;;;;;3.50;3.20;;;;;;;19.83;65.83;96248.69;5079909;28;20081;-71
2022/07/14 01:29:23;;;;;;;3.22;3.00;;;;;;;19.78;65.72;96251.06;5073804;28;20031;-71
2022/07/14 01:31:48;;;;;;;2.53;2.42;;;;;;;19.83;65.47;96246.03;5077764;28;20100;-71
2022/07/14 01:34:14;;;;;;;3.38;2.80;;;;;;;19.85;67.03;96241.31;5073325;28;20100;-70
2022/07/14 01:36:39;;;;;;;4.25;3.08;;;;;;;19.81;66.07;96235.50;5083830;28;20024;-70
2022/07/14 01:39:06;;;;;;;2.90;2.70;;;;;;;19.82;64.84;96234.50;5079136;28;20020;-71
2022/07/14 01:41:32;;;;;;;2.80;2.70;;;;;;;19.83;64.81;96238.81;5083424;28;20052;-70
2022/07/14 01:43:57;;;;;;;3.55;3.25;;;;;;;19.86;64.79;96238.44;5074535;28;20050;-70
2022/07/14 01:46:23;;;;;;;6.95;6.28;;;;;;;19.81;64.88;96232.84;5077582;28;20021;-71
2022/07/14 01:48:48;;;;;;;4.45;4.05;;;;;;;19.84;64.80;96237.00;5081397;28;20444;-70
2022/07/14 01:51:14;;;;;;;4.60;4.20;;;;;;;19.76;65.14;96236.06;5071976;28;20042;-70
2022/07/14 01:53:41;;;;;;;4.00;2.72;;;;;;;19.72;65.03;96239.31;5072066;28;20028;-71
2022/07/14 01:56:07;;;;;;;3.00;2.80;;;;;;;19.63;66.55;96229.72;5081044;28;20020;-71
2022/07/14 01:58:33;;;;;;;3.20;3.00;;;;;;;19.59;68.07;96232.78;5074312;28;20512;-71
2022/07/14 02:03:42;;;;;;;2.95;2.70;;;;;;;19.57;65.94;96228.66;5076544;28;20054;-70
2022/07/14 02:06:08;;;;;;;3.08;2.78;;;;;;;19.60;65.70;96234.44;5089642;28;20085;-71
2022/07/14 02:08:33;;;;;;;2.92;2.78;;;;;;;19.53;66.13;96230.88;5079018;28;20111;-70
2022/07/14 02:13:42;;;;;;;2.95;2.72;;;;;;;19.40;66.28;96239.53;5077307;28;20070;-71
2022/07/14 02:16:08;;;;;;;5.20;2.60;;;;;;;19.41;65.39;96240.34;5074355;28;20514;-72
2022/07/14 02:18:34;;;;;;;3.50;2.78;;;;;;;19.36;66.20;96246.25;5071093;28;20020;-70
2022/07/14 02:20:59;;;;;;;3.13;2.92;;;;;;;19.14;67.54;96247.97;5056084;28;20388;-71
2022/07/14 02:23:25;;;;;;;4.13;3.20;;;;;;;19.06;68.30;96251.53;5081049;28;20032;-71
2022/07/14 02:25:50;;;;;;;3.35;2.72;;;;;;;18.94;69.14;96250.31;5074517;28;20025;-70
2022/07/14 02:28:16;;;;;;;5.57;2.90;;;;;;;18.88;68.70;96247.34;5074319;28;20487;-70
2022/07/14 02:30:41;;;;;;;3.20;3.00;;;;;;;18.84;68.71;96253.22;5079032;28;20024;-70
2022/07/14 02:33:07;;;;;;;4.30;2.60;;;;;;;18.82;68.89;96252.59;5075283;28;20146;-70
2022/07/14 02:35:33;;;;;;;4.85;2.60;;;;;;;18.83;69.01;96255.06;5080871;28;20089;-70
2022/07/14 02:37:59;;;;;;;3.03;2.90;;;;;;;18.81;69.63;96258.94;5072495;28;20034;-70
2022/07/14 02:40:24;;;;;;;3.22;2.78;;;;;;;18.76;69.43;96260.28;5078321;28;20020;-70
2022/07/14 02:42:49;;;;;;;3.40;2.63;;;;;;;18.76;69.08;96264.78;5077924;28;20031;-70
2022/07/14 02:45:15;;;;;;;2.88;2.67;;;;;;;18.78;68.84;96264.59;5076734;28;20017;-70
2022/07/14 02:47:40;;;;;;;3.72;2.80;;;;;;;18.80;68.51;96271.41;5092488;28;20059;-70
2022/07/14 02:50:06;;;;;;;3.40;3.10;;;;;;;18.85;68.02;96265.56;5089242;28;20537;-70
2022/07/14 02:52:31;;;;;;;3.45;2.83;;;;;;;18.92;68.00;96271.81;5087206;28;20020;-70
2022/07/14 02:54:57;;;;;;;3.17;2.85;;;;;;;18.94;67.82;96272.47;5089254;28;20372;-70
2022/07/14 02:57:22;;;;;;;5.70;3.03;;;;;;;18.92;67.81;96274.50;5082771;28;20055;-70
2022/07/14 02:59:48;;;;;;;2.70;2.60;;;;;;;18.87;67.85;96272.34;5082219;28;20070;-70
2022/07/14 03:02:13;;;;;;;4.10;3.40;;;;;;;18.89;67.75;96278.34;5085783;28;20372;-70
2022/07/14 03:04:39;;;;;;;4.25;3.50;;;;;;;18.94;67.86;96280.47;5081146;28;20064;-70
2022/07/14 03:07:04;;;;;;;2.85;2.75;;;;;;;18.92;67.87;96277.16;5087048;28;20024;-70
2022/07/14 03:09:30;;;;;;;3.28;3.08;;;;;;;18.90;67.67;96272.00;5090154;28;20544;-70
2022/07/14 03:11:55;;;;;;;3.17;2.97;;;;;;;18.83;68.50;96271.06;5085143;28;20039;-70
2022/07/14 03:14:21;;;;;;;5.32;4.30;;;;;;;18.87;68.26;96271.53;5080623;28;20153;-70
2022/07/14 03:16:46;;;;;;;3.53;3.22;;;;;;;18.84;68.45;96263.91;5076264;28;20028;-70
2022/07/14 03:19:11;;;;;;;4.28;3.20;;;;;;;18.82;68.46;96268.59;5084449;28;20119;-70
2022/07/14 03:21:37;;;;;;;3.92;3.63;;;;;;;18.80;69.76;96265.28;5080101;28;20686;-70
2022/07/14 03:24:02;;;;;;;4.07;3.03;;;;;;;18.73;69.13;96270.50;5083707;28;20070;-70
2022/07/14 03:26:29;;;;;;;3.08;2.88;;;;;;;18.72;68.77;96266.97;5080123;28;20050;-70
2022/07/14 03:28:55;;;;;;;3.35;3.15;;;;;;;18.70;68.69;96262.84;5077356;28;20027;-70
2022/07/14 03:31:20;;;;;;;3.35;3.13;;;;;;;18.70;68.88;96262.84;5080558;28;20020;-70
2022/07/14 03:33:45;;;;;;;2.95;2.75;;;;;;;18.65;69.99;96263.38;5079135;28;20025;-70
2022/07/14 03:36:11;;;;;;;2.95;2.67;;;;;;;18.65;69.33;96257.19;5081013;28;20061;-70
2022/07/14 03:38:36;;;;;;;5.30;3.38;;;;;;;18.58;69.90;96255.25;5087891;28;20418;-71
2022/07/14 03:41:05;;;;;;;3.08;2.88;;;;;;;18.58;69.12;96255.25;5076758;28;20091;-70
2022/07/14 03:43:30;;;;;;;3.33;3.13;;;;;;;18.65;69.25;96241.22;5081597;28;20016;-70
2022/07/14 03:45:56;;;;;;;3.20;3.00;;;;;;;18.57;69.76;96250.94;5077718;28;20482;-70
2022/07/14 03:48:21;;;;;;;6.82;2.90;;;;;;;18.61;68.69;96244.22;5059879;28;20028;-70
2022/07/14 03:50:47;;;;;;;3.22;3.03;;;;;;;18.59;69.15;96242.78;5089485;28;20024;-70
2022/07/14 03:53:13;;;;;;;4.18;3.00;;;;;;;18.44;70.11;96242.69;5092256;28;20021;-69
2022/07/14 03:55:38;;;;;;;4.68;3.60;;;;;;;18.37;70.00;96247.09;5085168;28;20024;-70
2022/07/14 03:58:04;;;;;;;3.47;3.28;;;;;;;18.32;70.27;96247.63;5075874;28;20539;-69
2022/07/14 04:00:29;;;;;;;5.90;3.35;;;;;;;18.37;70.01;96245.28;5072549;28;20031;-70
2022/07/14 04:02:55;;;;;;;3.92;3.17;;;;;;;18.37;69.68;96242.59;5076977;28;20124;-69
2022/07/14 04:05:21;;;;;;;3.25;3.05;;;;;;;18.44;69.39;96240.88;5081890;28;20415;-70
2022/07/14 04:07:47;;;;;;;3.15;2.90;;;;;;;18.47;69.39;96240.50;5087859;28;20032;-70
2022/07/14 04:10:12;;;;;;;3.53;3.10;;;;;;;18.45;69.31;96239.88;5090118;28;20016;-70
2022/07/14 04:12:37;;;;;;;4.30;3.08;;;;;;;18.47;69.06;96239.69;5079435;28;20519;-70
2022/07/14 04:15:03;;;;;;;5.15;2.88;;;;;;;18.47;69.69;96239.69;5078781;28;20023;-70
2022/07/14 04:17:28;;;;;;;3.65;3.35;;;;;;;18.48;68.93;96233.34;5080146;28;20064;-70
2022/07/14 04:19:54;;;;;;;2.97;2.88;;;;;;;18.49;69.32;96234.16;5080297;28;20103;-70
2022/07/14 04:22:19;;;;;;;3.38;3.10;;;;;;;18.46;69.86;96236.19;5079891;28;20024;-70
2022/07/14 04:24:44;;;;;;;4.13;2.97;;;;;;;18.48;69.64;96244.03;5088326;28;20471;-70
2022/07/14 04:27:10;;;;;;;3.70;3.40;;;;;;;18.50;69.16;96239.34;5076582;28;20688;-71
2022/07/14 04:29:35;;;;;;;3.38;3.17;;;;;;;18.52;69.39;96244.47;5076696;28;20059;-70
2022/07/14 04:32:01;;;;;;;3.58;3.38;;;;;;;18.46;69.48;96240.72;5083483;28;20495;-70
2022/07/14 04:34:26;;;;;;;4.43;3.22;;;;;;;18.37;70.59;96247.09;5078122;28;20060;-71
2022/07/14 04:36:51;;;;;;;3.78;3.42;;;;;;;18.29;70.89;96243.47;5085137;28;20017;-70
2022/07/14 04:39:17;;;;;;;3.47;3.28;;;;;;;18.25;70.78;96246.66;5071563;28;20035;-70
2022/07/14 04:41:42;;;;;;;3.53;3.22;;;;;;;18.29;70.78;96259.47;5081495;28;20106;-70
2022/07/14 04:44:08;;;;;;;4.55;3.40;;;;;;;18.23;71.22;96254.00;5088179;28;20027;-71
2022/07/14 04:46:33;;;;;;;4.13;3.80;;;;;;;18.20;71.47;96254.38;5091324;28;20024;-70
2022/07/14 04:54:26;;;;;;;3.15;2.85;;;;;;;18.38;70.65;96268.25;5091524;28;20062;-71
2022/07/14 04:56:52;;;;;;;3.22;3.03;;;;;;;18.41;70.24;96269.72;5091200;28;20051;-69
2022/07/14 04:59:17;;;;;;;3.78;3.20;;;;;;;18.45;70.30;96274.53;5091442;28;20141;-69
2022/07/14 05:01:43;;;;;;;3.22;2.97;;;;;;;18.49;70.41;96280.34;5091831;28;20031;-69
2022/07/14 05:04:08;;;;;;;3.78;3.53;;;;;;;18.49;70.18;96277.66;5091494;28;20073;-69
2022/07/14 05:06:33;;;;;;;3.38;3.17;;;;;;;18.51;70.68;96275.66;5091482;28;20085;-69
2022/07/14 05:08:59;;;;;;;3.50;3.30;;;;;;;18.52;70.49;96274.66;5090830;28;20020;-69
2022/07/14 05:11:25;;;;;;;3.33;3.13;;;;;;;18.56;70.32;96277.75;5096229;28;20055;-69
2022/07/14 05:13:53;;;;;;;3.22;3.03;;;;;;;18.64;70.14;96282.22;5111003;28;20028;-69
2022/07/14 05:16:18;;;;;;;3.22;3.03;;;;;;;18.63;70.14;96273.41;5111376;28;20019;-69
2022/07/14 05:18:43;;;;;;;3.17;2.97;;;;;;;18.71;70.70;96269.84;5111960;28;20049;-69
2022/07/14 05:21:09;;;;;;;3.53;3.33;;;;;;;18.83;70.08;96271.06;5111218;28;20095;-69
2022/07/14 05:23:34;;;;;;;5.00;3.15;;;;;;;18.96;69.90;96264.28;5111425;28;20047;-69
2022/07/14 05:26:00;;;;;;;3.53;2.90;;;;;;;19.09;69.42;96266.38;5111499;28;20027;-69
2022/07/14 05:28:26;;;;;;;3.30;3.10;;;;;;;19.17;69.60;96275.13;5111039;28;20030;-69
2022/07/14 05:30:57;;;;;;;2.70;2.60;;;;;;;19.28;69.39;96270.34;5111368;28;20040;-69
2022/07/14 05:33:22;;;;;;;3.15;2.95;;;;;;;19.37;69.10;96271.09;5111171;28;20015;-69
2022/07/14 05:35:48;;;;;;;3.20;2.97;;;;;;;19.47;68.27;96271.66;5111293;28;20076;-69
2022/07/14 05:38:13;;;;;;;3.58;3.30;;;;;;;19.56;67.82;96269.69;5111138;28;20055;-69
2022/07/14 05:40:38;;;;;;;5.85;2.90;;;;;;;19.61;67.17;96281.50;5111343;28;20105;-69
2022/07/14 05:43:04;;;;;;;3.05;2.85;;;;;;;19.69;66.52;96275.22;5111277;28;20034;-68
2022/07/14 05:45:29;;;;;;;3.20;2.95;;;;;;;19.81;66.37;96280.13;5110921;28;20467;-69
2022/07/14 05:47:54;;;;;;;3.28;3.05;;;;;;;19.96;65.68;96272.91;5111117;28;20137;-69
2022/07/14 05:50:21;;;;;;;3.25;3.05;;;;;;;20.08;65.22;96272.44;5110801;28;20512;-69
2022/07/14 05:52:46;;;;;;;2.53;2.42;;;;;;;20.16;64.67;96270.50;5111217;28;20080;-69
2022/07/14 05:55:12;;;;;;;3.03;2.75;;;;;;;20.20;64.84;96276.28;5110736;28;20023;-69
2022/07/14 05:57:37;;;;;;;2.85;2.70;;;;;;;20.30;65.24;96274.16;5110644;28;20145;-69
2022/07/14 06:00:03;;;;;;;4.07;3.28;;;;;;;20.47;64.28;96279.25;5110929;28;20016;-69
2022/07/14 06:02:29;;;;;;;3.17;2.70;;;;;;;20.71;62.58;96270.00;5110654;28;20043;-70
2022/07/14 06:04:54;;;;;;;2.50;2.40;;;;;;;20.87;62.01;96274.28;5110854;28;20028;-69
2022/07/14 06:07:20;;;;;;;4.03;3.03;;;;;;;20.96;63.66;96280.34;5110554;28;20027;-70
2022/07/14 06:09:47;;;;;;;4.07;2.92;;;;;;;21.08;64.18;96280.63;5105254;28;20020;-70
2022/07/14 06:12:12;;;;;;;6.70;2.70;;;;;;;21.08;63.97;96277.94;5102208;28;20023;-70
2022/07/14 06:14:40;;;;;;;3.42;3.08;;;;;;;21.24;63.67;96273.34;5110668;28;20035;-70
2022/07/14 06:17:05;;;;;;;3.00;2.80;;;;;;;21.45;63.13;96273.28;5110554;28;20110;-70
2022/07/14 06:19:31;;;;;;;4.05;3.20;;;;;;;21.74;62.71;96274.06;5110131;28;20448;-70
2022/07/14 06:21:56;;;;;;;3.05;2.80;;;;;;;22.07;61.06;96269.88;5110392;28;20058;-70
2022/07/14 06:24:21;;;;;;;3.25;3.05;;;;;;;22.27;59.35;96269.13;5110083;28;20024;-70
2022/07/14 06:26:47;;;;;;;3.10;2.95;;;;;;;22.51;58.22;96267.78;5110530;28;20038;-64
2022/07/14 06:29:13;;;;;;;4.10;2.35;;;;;;;22.72;57.45;96258.72;5110357;28;20111;-64
2022/07/14 06:31:38;;;;;;;2.95;2.67;;;;;;;22.80;57.44;96265.75;5109420;28;20043;-64
2022/07/14 06:34:05;;;;;;;6.32;2.97;;;;;;;22.68;57.13;96264.72;5109949;28;20059;-64
2022/07/14 06:36:31;;;;;;;4.18;2.50;;;;;;;22.65;57.24;96268.63;5109578;28;20434;-64
2022/07/14 06:38:57;;;;;;;2.70;2.50;;;;;;;22.87;56.99;96255.84;5109184;28;20055;-64
2022/07/14 06:41:23;;;;;;;5.70;2.63;;;;;;;23.32;55.53;96255.22;5109329;28;20058;-64
2022/07/14 06:43:49;;;;;;;4.07;2.83;;;;;;;23.84;54.63;96261.72;5110022;28;20024;-65
2022/07/14 06:46:15;;;;;;;2.70;2.47;;;;;;;24.28;52.21;96262.78;5109825;28;20058;-64
2022/07/14 06:48:41;;;;;;;2.55;2.35;;;;;;;24.56;50.64;96258.91;5109426;28;20339;-64
2022/07/14 06:51:06;;;;;;;2.40;2.22;;;;;;;24.95;49.14;96264.22;5109625;28;20031;-64
2022/07/14 06:53:32;;;;;;;2.30;2.20;;;;;;;25.44;48.11;96263.63;5091405;28;20410;-66
2022/07/14 06:55:58;;;;;;;2.97;2.60;;;;;;;25.63;46.06;96256.38;5109275;28;20027;-66
2022/07/14 06:58:23;;;;;;;3.50;2.35;;;;;;;25.95;46.44;96255.41;5109034;28;20441;-66
2022/07/14 07:00:48;;;;;;;5.38;2.40;;;;;;;26.00;46.85;96264.47;5109834;28;20102;-67
2022/07/14 07:03:14;;;;;;;2.50;2.30;;;;;;;25.78;45.90;96260.59;5109192;28;20022;-67
2022/07/14 07:08:23;;;;;;;2.13;2.03;;;;;;;25.41;45.92;96261.34;5109045;28;20094;-66
2022/07/14 07:10:49;;;;;;;3.13;2.75;;;;;;;25.50;46.56;96251.13;5094459;28;20016;-67
2022/07/14 07:13:15;;;;;;;2.35;2.17;;;;;;;25.51;46.04;96259.00;5109232;28;20015;-66
2022/07/14 07:15:41;;;;;;;2.30;2.20;;;;;;;25.97;45.18;96258.69;5109400;28;20387;-65
2022/07/14 07:18:07;;;;;;;2.03;1.92;;;;;;;26.65;43.61;96255.97;5109338;28;20534;-66
2022/07/14 07:20:34;;;;;;;2.33;2.15;;;;;;;27.15;42.04;96252.91;5109340;28;20020;-68
2022/07/14 07:23:00;;;;;;;3.60;2.50;;;;;;;27.52;41.99;96254.56;5109120;28;20020;-66
2022/07/14 07:25:25;;;;;;;2.20;2.10;;;;;;;27.87;39.98;96239.34;5109209;28;20123;-66
2022/07/14 07:27:50;;;;;;;2.20;2.10;;;;;;;28.10;39.39;96253.84;5109645;28;20028;-65
2022/07/14 07:30:16;;;;;;;7.38;2.15;;;;;;;28.44;38.71;96245.88;5109325;28;20033;-67
2022/07/14 07:32:41;;;;;;;2.58;2.08;;;;;;;28.77;38.51;96243.47;5108740;28;20080;-66
2022/07/14 07:35:07;;;;;;;1.90;1.80;;;;;;;29.20;37.43;96233.06;5109316;28;20478;-66
2022/07/14 07:37:32;;;;;;;3.70;2.00;;;;;;;29.28;36.36;96235.34;5113035;28;20492;-66
2022/07/14 07:39:59;;;;;;;3.65;2.42;;;;;;;29.14;37.24;96237.56;5112985;28;20086;-66
2022/07/14 07:42:25;;;;;;;2.08;1.98;;;;;;;28.59;38.92;96227.19;5112762;28;20050;-66
2022/07/14 07:44:51;;;;;;;2.00;1.90;;;;;;;28.94;36.34;96233.47;5113131;28;20016;-66
2022/07/14 07:47:16;;;;;;;2.33;2.22;;;;;;;29.25;36.83;96222.28;5113148;28;20038;-66
2022/07/14 07:49:41;;;;;;;2.17;2.00;;;;;;;29.73;35.04;96231.69;5109699;28;20035;-66
2022/07/14 07:52:07;;;;;;;2.20;2.00;;;;;;;29.95;35.17;96232.72;5110951;28;20042;-66
2022/07/14 07:54:32;;;;;;;2.30;1.85;;;;;;;30.08;34.78;96226.97;5112791;28;20059;-66
2022/07/14 07:56:59;;;;;;;3.33;2.08;;;;;;;30.44;34.26;96229.22;5112293;28;20442;-65
2022/07/14 07:59:26;;;;;;;2.00;1.90;;;;;;;30.92;33.52;96225.88;5112572;28;20027;-66
2022/07/14 08:01:51;;;;;;;2.20;2.00;;;;;;;30.92;33.15;96223.16;5112088;28;20023;-65
2022/07/14 08:04:17;;;;;;;4.05;1.98;;;;;;;31.37;33.76;96224.59;5099049;28;20112;-66
2022/07/14 08:06:42;;;;;;;1.85;1.73;;;;;;;31.55;32.07;96227.97;5112459;28;20538;-66
2022/07/14 08:09:11;;;;;;;2.00;1.90;;;;;;;31.66;32.58;96226.91;5111724;28;20027;-66
2022/07/14 08:11:41;;;;;;;1.90;1.80;;;;;;;31.96;31.06;96225.47;5085606;28;20028;-66
2022/07/14 08:14:47;;;;;;;5.47;2.00;;;;;;;31.87;31.23;96216.16;5112505;28;20031;-65
2022/07/14 08:16:58;;;;;;;5.57;1.77;;;;;;;31.58;32.66;96216.56;5095931;28;20460;-66
2022/07/14 08:19:24;;;;;;;2.00;1.80;;;;;;;31.66;32.29;96213.31;5073527;28;20431;-66
2022/07/14 08:21:50;;;;;;;3.38;1.80;;;;;;;32.29;31.05;96200.78;5090677;28;20077;-66
2022/07/14 08:24:18;;;;;;;5.60;1.90;;;;;;;32.13;32.46;96213.53;5094442;28;20110;-65
2022/07/14 08:26:44;;;;;;;5.95;1.80;;;;;;;32.44;31.00;96202.75;5101975;28;20393;-65
2022/07/14 08:29:10;;;;;;;3.30;1.83;;;;;;;32.69;30.60;96198.41;5095039;28;20035;-66
2022/07/14 08:31:35;;;;;;;2.15;1.77;;;;;;;32.61;30.39;96197.03;5100162;28;20395;-66
2022/07/14 08:34:01;;;;;;;1.85;1.75;;;;;;;32.92;30.52;96191.59;5105414;28;20145;-65
2022/07/14 08:36:26;;;;;;;1.70;1.60;;;;;;;33.12;30.01;96189.94;5091774;28;20039;-66
2022/07/14 08:38:51;;;;;;;4.90;1.92;;;;;;;33.04;30.71;96188.59;5091775;28;20513;-66
2022/07/14 08:41:18;;;;;;;1.50;1.48;;;;;;;33.14;29.24;96190.47;5092295;28;20031;-66
2022/07/14 08:43:45;;;;;;;1.95;1.85;;;;;;;33.19;29.48;96190.50;5104496;28;20050;-66
2022/07/14 08:46:10;;;;;;;2.72;1.70;;;;;;;33.03;29.68;96186.16;5099671;28;20281;-66
2022/07/14 08:48:36;;;;;;;2.40;1.58;;;;;;;33.50;29.99;96186.91;5099767;28;20608;-66
2022/07/14 08:51:02;;;;;;;4.65;1.90;;;;;;;33.60;28.86;96184.13;5089167;28;20085;-66
2022/07/14 08:53:28;;;;;;;1.85;1.75;;;;;;;33.32;29.86;96178.19;5091548;28;20035;-65
2022/07/14 08:55:53;;;;;;;2.03;1.85;;;;;;;33.49;30.44;96187.97;5091806;28;20055;-65
2022/07/14 08:58:19;;;;;;;2.13;1.92;;;;;;;33.45;29.67;96186.91;5091532;28;20061;-65
2022/07/14 09:00:45;;;;;;;3.45;1.98;;;;;;;33.78;29.86;96185.41;5091349;28;20031;-65
2022/07/14 09:03:10;;;;;;;2.92;1.90;;;;;;;33.99;27.53;96182.63;5091454;28;20516;-65
2022/07/14 09:05:43;;;;;;;2.60;1.90;;;;;;;33.21;27.82;96188.31;5090755;28;20024;-66
2022/07/14 09:08:11;;;;;;;1.80;1.70;;;;;;;33.34;28.43;96191.53;5091524;28;20012;-66
2022/07/14 09:10:39;;;;;;;2.75;2.00;;;;;;;32.49;30.00;96182.84;5091307;28;20075;-66
2022/07/14 09:13:31;;;;;;;2.10;2.00;;;;;;;32.47;29.62;96174.94;5110628;28;20170;-66
2022/07/14 09:16:15;;;;;;;3.22;1.80;;;;;;;32.51;28.03;96176.03;5108190;28;20073;-66
2022/07/14 09:18:41;;;;;;;2.50;1.97;;;;;;;32.64;29.34;96168.44;5111539;28;20106;-64
2022/07/14 09:21:20;;;;;;;1.63;1.52;;;;;;;33.01;28.62;96170.06;5110739;28;20016;-65
2022/07/14 09:23:46;;;;;;;2.47;1.95;;;;;;;32.92;29.00;96163.53;5111748;28;20361;-66
2022/07/14 09:26:17;;;;;;;1.75;1.70;;;;;;;33.09;29.20;96164.06;5111312;28;20019;-65
2022/07/14 09:28:44;;;;;;;2.70;2.00;;;;;;;33.46;28.33;96164.81;5111643;28;20023;-65
2022/07/14 09:31:25;;;;;;;1.60;1.50;;;;;;;34.15;26.92;96164.22;5111417;28;20016;-66
2022/07/14 09:33:56;;;;;;;1.80;1.70;;;;;;;33.88;26.61;96168.16;5086642;28;20157;-65
2022/07/14 09:36:29;;;;;;;4.63;1.73;;;;;;;34.19;25.45;96161.75;5111021;28;20501;-66
2022/07/14 09:39:08;;;;;;;2.70;1.73;;;;;;;34.04;26.74;96155.28;5111758;28;20098;-65
2022/07/14 09:41:55;;;;;;;1.52;1.42;;;;;;;34.32;25.39;96154.84;5111122;28;20096;-66
2022/07/14 09:44:21;;;;;;;2.50;1.70;;;;;;;34.42;25.45;96157.50;5111130;28;20028;-64
2022/07/14 09:46:51;;;;;;;1.60;1.50;;;;;;;34.28;24.70;96144.47;5111100;28;20032;-66
2022/07/14 09:49:18;;;;;;;2.47;1.58;;;;;;;34.42;25.13;96146.59;5111004;28;20024;-66
2022/07/14 09:51:55;;;;;;;4.80;1.77;;;;;;;34.36;24.00;96143.06;5111005;28;20035;-65
2022/07/14 09:54:50;;;;;;;1.48;1.38;;;;;;;34.46;25.27;96144.91;5110931;28;20402;-65
2022/07/14 09:57:15;;;;;;;4.55;1.60;;;;;;;34.45;25.03;96135.06;5110503;28;20058;-66
2022/07/14 09:59:46;;;;;;;1.98;1.65;;;;;;;34.39;26.04;96126.09;5110811;28;20486;-65
2022/07/14 10:02:23;;;;;;;3.30;1.70;;;;;;;34.43;26.44;96134.56;5110716;28;20026;-65
2022/07/14 10:04:50;;;;;;;2.15;1.92;;;;;;;34.41;26.02;96132.09;5110930;28;20050;-66
2022/07/14 10:07:17;;;;;;;3.65;1.80;;;;;;;34.41;25.86;96126.63;5092206;28;20023;-66
2022/07/14 10:09:50;;;;;;;7.95;1.77;;;;;;;34.09;26.31;96124.41;5105333;28;20499;-65
2022/07/14 10:12:16;;;;;;;3.50;1.80;;;;;;;34.38;24.83;96132.66;5102715;28;20019;-65
2022/07/14 10:14:43;;;;;;;2.13;1.92;;;;;;;34.57;24.85;96129.28;5110606;28;20031;-65
2022/07/14 10:17:09;;;;;;;3.85;1.90;;;;;;;34.87;24.46;96126.56;5110444;28;20490;-66
2022/07/14 10:19:35;;;;;;;4.22;1.90;;;;;;;35.02;24.74;96118.22;5110363;28;20055;-66
2022/07/14 10:22:02;;;;;;;2.80;1.92;;;;;;;34.78;24.98;96124.44;5111019;28;20103;-66
2022/07/14 10:24:28;;;;;;;2.03;1.60;;;;;;;35.21;23.72;96121.03;5110653;28;20023;-65
2022/07/14 10:26:55;;;;;;;3.30;1.85;;;;;;;35.15;23.44;96114.00;5110582;28;20463;-65
2022/07/14 10:29:21;;;;;;;2.00;1.83;;;;;;;35.15;24.09;96111.25;5110434;28;20054;-66
2022/07/14 10:32:27;;;;;;;1.77;1.50;;;;;;;35.18;24.18;96110.69;5110244;28;20043;-66
2022/07/14 10:35:14;;;;;;;2.10;1.80;;;;;;;35.07;24.48;96101.75;5065019;28;20110;-66
2022/07/14 10:38:07;;;;;;;1.80;1.58;;;;;;;35.51;23.95;96096.34;5110432;28;20114;-66
2022/07/14 10:40:57;;;;;;;1.83;1.73;;;;;;;35.41;24.65;96103.53;5084093;28;20111;-66
2022/07/14 10:43:25;;;;;;;3.25;1.67;;;;;;;35.33;24.92;96095.16;5110045;28;20034;-65
2022/07/14 10:45:53;;;;;;;3.00;1.73;;;;;;;35.83;24.51;96095.66;5110437;28;20016;-66
2022/07/14 10:48:31;;;;;;;4.22;1.70;;;;;;;35.78;24.36;96089.44;5110075;28;20024;-66
2022/07/14 10:51:21;;;;;;;1.85;1.58;;;;;;;36.16;22.45;96088.63;5110308;28;20034;-66
2022/07/14 10:54:06;;;;;;;1.40;1.23;;;;;;;35.98;19.86;96083.66;5110170;28;20027;-66
2022/07/14 10:56:32;;;;;;;1.60;1.50;;;;;;;36.17;22.01;96088.34;5110443;28;20028;-66
2022/07/14 10:59:21;;;;;;;4.43;1.33;;;;;;;36.59;22.12;96080.28;5109872;28;20446;-66
2022/07/14 11:02:14;;;;;;;2.60;1.90;;;;;;;36.19;22.36;96072.41;5110181;28;20031;-66
2022/07/14 11:05:14;;;;;;;1.75;1.45;;;;;;;36.41;22.56;96073.72;5089180;28;20502;-66
2022/07/14 11:07:40;;;;;;;2.88;1.50;;;;;;;37.09;21.01;96076.09;5105821;28;20044;-66
2022/07/14 11:10:26;;;;;;;6.28;1.33;;;;;;;36.65;20.04;96076.34;5101978;28;20551;-66
2022/07/14 11:13:06;;;;;;;1.38;1.30;;;;;;;36.75;19.68;96075.34;5079256;28;20031;-66
2022/07/14 11:15:45;;;;;;;3.83;1.48;;;;;;;37.13;19.56;96077.13;5114354;28;20077;-66
2022/07/14 11:18:29;;;;;;;2.55;1.38;;;;;;;36.82;20.93;96070.28;5113911;28;20493;-66
2022/07/14 11:20:55;;;;;;;;;;;;;;;37.13;19.02;96066.97;5114623;28;20027;-66
2022/07/14 11:23:26;;;;;;;1.30;1.30;;;;;;;36.98;20.81;96061.75;5113915;28;20285;-66
2022/07/14 11:25:53;;;;;;;1.98;1.50;;;;;;;37.22;21.07;96064.34;5114027;28;20038;-66
2022/07/14 11:28:50;;;;;;;2.90;1.70;;;;;;;36.55;21.27;96062.81;5113508;28;20102;-66
2022/07/14 11:31:21;;;;;;;1.50;1.40;;;;;;;36.94;22.10;96053.34;5113588;28;20042;-66
2022/07/14 11:36:36;;;;;;;3.53;1.27;;;;;;;37.50;20.24;96049.81;5113896;28;20035;-66
2022/07/14 11:39:17;;;;;;;4.85;1.50;;;;;;;38.25;19.60;96053.03;5113702;28;20020;-65
2022/07/14 11:41:43;;;;;;;1.95;1.77;;;;;;;37.46;20.44;96048.75;5113586;28;20379;-64
2022/07/14 11:44:51;;;;;;;2.63;1.52;;;;;;;36.89;19.86;96042.44;5113632;28;20058;-66
2022/07/14 11:47:29;;;;;;;3.08;1.50;;;;;;;37.13;20.98;96045.03;5017210;28;20057;-66
2022/07/14 11:49:59;;;;;;;3.90;1.80;;;;;;;37.20;19.97;96027.31;5030512;28;20436;-66
2022/07/14 11:52:33;;;;;;;4.72;1.40;;;;;;;37.53;20.19;96032.72;5061204;28;20038;-66
2022/07/14 11:55:00;;;;;;;5.00;1.42;;;;;;;37.87;19.64;96031.38;5113442;28;20426;-66